createdAt,value
2023-01-31T00:02:00.069Z,7.00
2023-01-31T00:04:29.530Z,7.00
2023-01-31T00:06:57.343Z,7.00
2023-01-31T00:09:25.221Z,6.90
2023-01-31T00:11:53.394Z,6.90
2023-01-31T00:14:22.292Z,6.90
2023-01-31T00:16:50.135Z,6.90
2023-01-31T00:19:18.052Z,6.90
2023-01-31T00:21:47.260Z,6.90
2023-01-31T00:24:16.388Z,6.90
2023-01-31T00:26:44.630Z,6.90
2023-01-31T00:29:12.580Z,6.90
2023-01-31T00:31:40.719Z,6.80
2023-01-31T00:34:09.093Z,6.80
2023-01-31T00:36:37.984Z,6.80
2023-01-31T00:39:08.501Z,6.80
2023-01-31T00:41:38.473Z,6.80
2023-01-31T00:44:07.476Z,6.80
2023-01-31T00:46:36.165Z,6.80
2023-01-31T00:49:04.850Z,6.80
2023-01-31T00:51:32.836Z,6.70
2023-01-31T00:54:00.611Z,6.70
2023-01-31T00:56:29.955Z,6.70
2023-01-31T00:58:57.821Z,6.70
2023-01-31T01:01:27.625Z,6.70
2023-01-31T01:03:56.627Z,6.70
2023-01-31T01:06:25.050Z,6.70
2023-01-31T01:08:53.125Z,6.70
2023-01-31T01:11:23.078Z,6.70
2023-01-31T01:13:53.424Z,6.70
2023-01-31T01:16:23.210Z,6.70
2023-01-31T01:18:51.984Z,6.70
2023-01-31T01:21:22.287Z,6.60
2023-01-31T01:23:50.581Z,6.60
2023-01-31T01:26:20.266Z,6.60
2023-01-31T01:28:49.861Z,6.60
2023-01-31T01:31:21.216Z,6.60
2023-01-31T01:33:50.363Z,6.60
2023-01-31T01:36:22.158Z,6.60
2023-01-31T01:38:50.381Z,6.60
2023-01-31T01:41:18.611Z,6.60
2023-01-31T01:43:48.677Z,6.60
2023-01-31T01:46:24.005Z,6.60
2023-01-31T01:48:55.408Z,6.60
2023-01-31T01:51:24.349Z,6.60
2023-01-31T01:53:57.760Z,6.60
2023-01-31T01:56:32.405Z,6.60
2023-01-31T01:59:04.565Z,6.60
2023-01-31T02:01:36.454Z,6.70
2023-01-31T02:04:06.282Z,6.70
2023-01-31T02:06:34.410Z,6.70
2023-01-31T02:09:04.592Z,6.70
2023-01-31T02:11:33.245Z,6.70
2023-01-31T02:14:05.533Z,6.70
2023-01-31T02:16:35.045Z,6.80
2023-01-31T02:19:04.591Z,6.80
2023-01-31T02:22:07.754Z,7.10
2023-01-31T02:25:23.970Z,6.90
2023-01-31T02:28:17.370Z,6.90
2023-01-31T02:31:25.383Z,6.90
2023-01-31T02:34:01.690Z,7.10
2023-01-31T02:36:39.258Z,7.00
2023-01-31T02:39:15.169Z,7.00
2023-01-31T02:41:51.217Z,7.00
2023-01-31T02:44:42.498Z,7.10
2023-01-31T02:47:23.231Z,7.10
2023-01-31T02:49:58.795Z,7.20
2023-01-31T02:52:33.836Z,7.20
2023-01-31T02:55:28.944Z,7.20
2023-01-31T02:57:59.807Z,7.20
2023-01-31T03:00:29.827Z,7.30
2023-01-31T03:02:57.708Z,7.30
2023-01-31T03:05:27.579Z,7.30
2023-01-31T03:07:59.670Z,7.30
2023-01-31T03:10:51.241Z,7.40
2023-01-31T03:13:32.950Z,7.40
2023-01-31T03:16:30.751Z,7.40
2023-01-31T03:19:13.932Z,7.40
2023-01-31T03:21:47.222Z,7.50
2023-01-31T03:24:17.337Z,7.50
2023-01-31T03:26:45.734Z,7.50
2023-01-31T03:29:17.609Z,7.50
2023-01-31T03:31:50.427Z,7.50
2023-01-31T03:34:19.287Z,7.60
2023-01-31T03:36:56.676Z,7.60
2023-01-31T03:39:37.487Z,7.60
2023-01-31T03:42:09.069Z,7.60
2023-01-31T03:44:44.717Z,7.70
2023-01-31T03:47:20.855Z,7.70
2023-01-31T03:49:51.502Z,7.70
2023-01-31T03:52:26.782Z,7.70
2023-01-31T03:54:58.526Z,7.70
2023-01-31T03:57:32.818Z,7.70
2023-01-31T04:00:03.632Z,7.80
2023-01-31T04:02:35.354Z,7.80
2023-01-31T04:05:08.513Z,7.80
2023-01-31T04:07:38.530Z,7.90
2023-01-31T04:10:15.499Z,7.90
2023-01-31T04:12:43.481Z,7.90
2023-01-31T04:15:12.538Z,7.90
2023-01-31T04:17:40.424Z,7.90
2023-01-31T04:20:10.063Z,7.90
2023-01-31T04:22:39.834Z,8.00
2023-01-31T04:25:08.822Z,8.00
2023-01-31T04:27:37.129Z,7.90
2023-01-31T04:30:09.667Z,8.00
2023-01-31T04:32:37.510Z,8.00
2023-01-31T04:35:06.569Z,7.90
2023-01-31T04:37:34.399Z,7.90
2023-01-31T04:40:03.722Z,8.30
2023-01-31T04:42:31.866Z,8.00
2023-01-31T04:44:59.741Z,8.00
2023-01-31T04:47:27.584Z,8.00
2023-01-31T04:49:55.384Z,8.00
2023-01-31T04:52:24.312Z,8.00
2023-01-31T04:54:52.347Z,8.70
2023-01-31T04:57:21.736Z,8.00
2023-01-31T04:59:50.315Z,8.10
2023-01-31T05:02:18.716Z,8.00
2023-01-31T05:04:47.123Z,8.00
2023-01-31T05:07:15.053Z,8.00
2023-01-31T05:09:44.008Z,8.10
2023-01-31T05:12:12.186Z,8.10
2023-01-31T05:14:41.346Z,8.10
2023-01-31T05:17:09.716Z,8.10
2023-01-31T05:19:37.585Z,9.50
2023-01-31T05:22:06.324Z,8.10
2023-01-31T05:24:34.946Z,5.70
2023-01-31T05:27:03.704Z,8.10
2023-01-31T05:29:33.641Z,8.10
2023-01-31T05:32:04.277Z,8.10
2023-01-31T05:34:33.203Z,8.10
2023-01-31T05:37:01.596Z,8.10
2023-01-31T05:39:29.681Z,8.10
2023-01-31T05:41:58.100Z,8.10
2023-01-31T05:44:25.940Z,8.10
2023-01-31T05:46:53.795Z,8.10
2023-01-31T05:49:23.201Z,8.20
2023-01-31T05:51:51.245Z,8.10
2023-01-31T05:54:19.086Z,8.10
2023-01-31T05:56:47.362Z,8.10
2023-01-31T05:59:15.744Z,8.20
2023-01-31T06:01:43.610Z,8.10
2023-01-31T06:04:11.508Z,8.20
2023-01-31T06:06:40.701Z,8.20
2023-01-31T06:09:09.086Z,8.20
2023-01-31T06:11:36.906Z,8.20
2023-01-31T06:14:06.536Z,8.20
2023-01-31T06:16:34.387Z,8.20
2023-01-31T06:19:02.697Z,8.20
2023-01-31T06:21:30.896Z,8.20
2023-01-31T06:24:00.193Z,8.20
2023-01-31T06:26:28.184Z,8.40
2023-01-31T06:28:56.734Z,8.30
2023-01-31T06:31:24.739Z,8.30
2023-01-31T06:33:53.258Z,8.30
2023-01-31T06:36:21.532Z,8.30
2023-01-31T06:38:53.455Z,8.30
2023-01-31T06:41:22.892Z,8.30
2023-01-31T06:43:51.437Z,8.30
2023-01-31T06:46:19.459Z,8.30
2023-01-31T06:48:48.321Z,8.30
2023-01-31T06:51:19.147Z,8.30
2023-01-31T06:53:51.364Z,8.30
2023-01-31T06:56:19.191Z,8.50
2023-01-31T06:58:48.496Z,8.30
2023-01-31T07:01:16.700Z,8.40
2023-01-31T07:03:44.626Z,8.40
2023-01-31T07:06:13.997Z,8.40
2023-01-31T07:08:41.886Z,8.40
2023-01-31T07:11:09.811Z,8.40
2023-01-31T07:13:37.689Z,8.40
2023-01-31T07:16:07.458Z,8.40
2023-01-31T07:18:35.381Z,8.40
2023-01-31T07:21:05.334Z,8.50
2023-01-31T07:23:33.487Z,8.50
2023-01-31T07:26:07.065Z,8.50
2023-01-31T07:28:34.830Z,8.50
2023-01-31T07:31:13.125Z,9.20
2023-01-31T07:33:41.928Z,8.60
2023-01-31T07:36:14.053Z,8.60
2023-01-31T07:38:42.305Z,8.50
2023-01-31T07:41:12.521Z,8.50
2023-01-31T07:43:40.437Z,8.50
2023-01-31T07:46:11.272Z,8.50
2023-01-31T07:48:39.291Z,8.60
2023-01-31T07:51:07.745Z,8.60
2023-01-31T07:53:39.853Z,8.60
2023-01-31T07:56:12.510Z,9.60
2023-01-31T07:58:41.392Z,8.60
2023-01-31T08:01:31.436Z,8.60
2023-01-31T08:04:10.669Z,8.60
2023-01-31T08:06:47.608Z,8.60
2023-01-31T08:09:16.254Z,8.60
2023-01-31T08:11:44.215Z,8.80
2023-01-31T08:14:12.375Z,8.70
2023-01-31T08:16:41.642Z,9.00
2023-01-31T08:19:09.510Z,8.70
2023-01-31T08:21:37.353Z,8.70
2023-01-31T08:24:06.168Z,8.70
2023-01-31T08:26:34.061Z,8.70
2023-01-31T08:29:02.256Z,8.70
2023-01-31T08:31:30.221Z,8.70
2023-01-31T08:33:59.875Z,8.80
2023-01-31T08:36:31.586Z,8.80
2023-01-31T08:39:00.227Z,8.80
2023-01-31T08:41:30.458Z,8.80
2023-01-31T08:43:59.767Z,8.80
2023-01-31T08:46:31.387Z,8.80
2023-01-31T08:49:01.512Z,8.80
2023-01-31T08:51:30.242Z,8.80
2023-01-31T08:53:58.529Z,8.90
2023-01-31T08:56:27.879Z,9.10
2023-01-31T08:58:56.501Z,8.80
2023-01-31T09:01:24.707Z,8.90
2023-01-31T09:03:56.679Z,9.00
2023-01-31T09:06:27.909Z,8.90
2023-01-31T09:08:57.356Z,9.00
2023-01-31T09:11:27.572Z,9.00
2023-01-31T09:13:55.520Z,9.00
2023-01-31T09:16:23.464Z,9.00
2023-01-31T09:18:51.673Z,9.00
2023-01-31T09:21:21.428Z,9.10
2023-01-31T09:23:56.141Z,9.20
2023-01-31T09:26:24.047Z,9.10
2023-01-31T09:28:51.918Z,9.20
2023-01-31T09:31:21.861Z,9.20
2023-01-31T09:33:49.719Z,9.20
2023-01-31T09:36:19.665Z,9.20
2023-01-31T09:38:47.654Z,9.20
2023-01-31T09:41:27.663Z,9.20
2023-01-31T09:44:00.050Z,9.30
2023-01-31T09:46:32.134Z,9.60
2023-01-31T09:49:02.770Z,9.30
2023-01-31T09:51:30.870Z,9.30
2023-01-31T09:53:59.030Z,9.30
2023-01-31T09:56:35.482Z,9.40
2023-01-31T09:59:15.053Z,9.40
2023-01-31T10:01:50.058Z,9.40
2023-01-31T10:04:32.877Z,9.40
2023-01-31T10:07:06.024Z,9.40
2023-01-31T10:09:38.387Z,9.40
2023-01-31T10:12:14.953Z,9.70
2023-01-31T10:14:50.543Z,9.40
2023-01-31T10:17:23.444Z,9.40
2023-01-31T10:19:56.267Z,9.50
2023-01-31T10:22:32.307Z,9.50
2023-01-31T10:25:07.157Z,9.60
2023-01-31T10:27:46.634Z,9.50
2023-01-31T10:30:19.797Z,9.50
2023-01-31T10:32:52.817Z,9.60
2023-01-31T10:35:25.855Z,9.60
2023-01-31T10:37:58.840Z,8.20
2023-01-31T10:40:33.629Z,9.60
2023-01-31T10:43:13.134Z,9.90
2023-01-31T10:45:41.415Z,9.70
2023-01-31T10:48:17.053Z,9.80
2023-01-31T10:50:59.170Z,9.80
2023-01-31T10:53:51.901Z,9.80
2023-01-31T10:56:29.079Z,9.80
2023-01-31T10:59:01.330Z,9.80
2023-01-31T11:01:29.703Z,9.90
2023-01-31T11:03:58.200Z,10.20
2023-01-31T11:06:26.074Z,9.90
2023-01-31T11:08:57.636Z,9.90
2023-01-31T11:11:27.542Z,10.00
2023-01-31T11:14:01.583Z,10.00
2023-01-31T11:16:31.933Z,10.00
2023-01-31T11:19:02.011Z,10.00
2023-01-31T11:21:32.025Z,10.00
2023-01-31T11:24:04.868Z,10.00
2023-01-31T11:26:35.384Z,10.00
2023-01-31T11:29:08.974Z,10.00
2023-01-31T11:31:41.703Z,10.10
2023-01-31T11:34:22.643Z,10.10
2023-01-31T11:36:51.547Z,10.10
2023-01-31T11:39:28.073Z,10.10
2023-01-31T11:41:55.979Z,10.10
2023-01-31T11:44:25.436Z,11.10
2023-01-31T11:46:56.476Z,10.10
2023-01-31T11:49:30.576Z,10.10
2023-01-31T11:51:59.956Z,10.10
2023-01-31T11:54:31.154Z,10.30
2023-01-31T11:56:59.860Z,10.10
2023-01-31T11:59:31.575Z,10.10
2023-01-31T12:02:01.703Z,10.20
2023-01-31T12:04:34.937Z,10.20
2023-01-31T12:07:05.939Z,10.20
2023-01-31T12:09:43.809Z,10.20
2023-01-31T12:12:29.924Z,10.20
2023-01-31T12:15:02.058Z,10.20
2023-01-31T12:17:32.682Z,10.30
2023-01-31T12:20:28.459Z,10.30
2023-01-31T12:23:07.037Z,10.30
2023-01-31T12:25:49.211Z,10.30
2023-01-31T12:28:32.336Z,10.30
2023-01-31T12:31:30.569Z,10.30
2023-01-31T12:34:25.013Z,10.30
2023-01-31T12:37:16.129Z,10.40
2023-01-31T12:39:57.088Z,10.40
2023-01-31T12:42:42.082Z,10.40
2023-01-31T12:45:27.078Z,10.50
2023-01-31T12:48:24.900Z,10.50
2023-01-31T12:51:01.827Z,9.10
2023-01-31T12:53:43.250Z,10.60
2023-01-31T12:56:24.996Z,10.60
2023-01-31T12:59:14.704Z,10.60
2023-01-31T13:01:49.611Z,10.70
2023-01-31T13:04:37.844Z,10.80
2023-01-31T13:07:13.825Z,10.80
2023-01-31T13:09:42.340Z,10.90
2023-01-31T13:12:15.133Z,11.00
2023-01-31T13:14:48.148Z,11.00
2023-01-31T13:17:24.073Z,11.10
2023-01-31T13:19:58.365Z,11.10
2023-01-31T13:22:29.659Z,11.20
2023-01-31T13:25:07.791Z,11.20
2023-01-31T13:27:40.900Z,11.20
2023-01-31T13:30:18.817Z,11.20
2023-01-31T13:32:50.659Z,11.30
2023-01-31T13:35:25.597Z,11.30
2023-01-31T13:37:58.144Z,11.30
2023-01-31T13:40:28.917Z,11.40
2023-01-31T13:43:00.857Z,11.40
2023-01-31T13:45:34.151Z,11.40
2023-01-31T13:48:06.503Z,11.50
2023-01-31T13:50:42.025Z,11.50
2023-01-31T13:53:17.461Z,11.50
2023-01-31T13:55:48.871Z,11.50
2023-01-31T13:58:21.016Z,11.60
2023-01-31T14:00:51.823Z,11.60
2023-01-31T14:03:21.746Z,11.60
2023-01-31T14:06:00.956Z,11.60
2023-01-31T14:08:37.578Z,11.70
2023-01-31T14:11:34.777Z,11.70
2023-01-31T14:14:29.137Z,11.70
2023-01-31T14:16:57.120Z,11.70
2023-01-31T14:19:54.913Z,11.70
